Time;durP1;ratioP1;P1;durP2;ratioP2;P2;SDS_P1;SDS_P2;PMS_P1;PMS_P2;Temp;Humidity;BMP_temperature;BMP_pressure;BME280_temperature;BME280_humidity;BME280_pressure;Samples;Min_cycle;Max_cycle;Signal;HPM_P1;HPM_P2
2023/06/13 00:08:09;;;;;;;2.33;2.03;;;;;;;20.77;56.70;101369.72;20949419;28;20048;-65
2023/06/13 00:18:10;;;;;;;2.60;2.40;;;;;;;20.75;56.61;101379.84;20957236;28;20469;-65
2023/06/13 00:28:12;;;;;;;2.50;1.98;;;;;;;20.73;56.47;101358.34;20970336;28;20044;-65
2023/06/13 00:38:13;;;;;;;3.20;2.55;;;;;;;20.71;56.41;101363.88;20950294;28;20127;-65
2023/06/13 00:48:15;;;;;;;3.53;2.75;;;;;;;20.70;56.29;101356.78;20931713;28;20385;-65
2023/06/13 00:58:18;;;;;;;3.22;2.55;;;;;;;20.68;56.26;101364.19;20971656;28;20469;-65
2023/06/13 01:08:21;;;;;;;3.05;2.50;;;;;;;20.68;56.03;101368.75;20935088;28;20057;-65
2023/06/13 01:18:25;;;;;;;3.13;2.83;;;;;;;20.66;56.07;101365.34;20925256;28;20557;-65
2023/06/13 01:28:32;;;;;;;3.10;2.70;;;;;;;20.64;56.16;101357.34;20971120;28;20055;-65
2023/06/13 01:38:34;;;;;;;4.13;2.88;;;;;;;20.63;55.74;101355.66;20955448;28;20080;-65
2023/06/13 01:49:00;;;;;;;3.28;2.85;;;;;;;20.61;55.61;101349.53;20966107;28;20616;-65
2023/06/13 01:59:04;;;;;;;2.95;2.67;;;;;;;20.58;55.41;101347.13;20971813;28;20076;-65
2023/06/13 02:09:06;;;;;;;2.93;2.63;;;;;;;20.57;55.08;101340.00;20943222;28;20045;-65
2023/06/13 02:19:08;;;;;;;3.92;2.92;;;;;;;20.55;55.38;101337.44;20962550;28;20056;-65
2023/06/13 02:29:10;;;;;;;3.88;2.88;;;;;;;20.55;55.16;101342.00;20961670;28;20571;-65
2023/06/13 02:39:11;;;;;;;3.25;2.95;;;;;;;20.52;54.75;101342.28;20947637;28;20516;-65
2023/06/13 02:49:15;;;;;;;4.03;3.23;;;;;;;20.49;54.45;101345.28;20922994;28;20131;-65
2023/06/13 02:59:19;;;;;;;3.13;2.70;;;;;;;20.49;54.79;101353.38;20978614;28;20175;-65
2023/06/13 03:09:21;;;;;;;4.27;2.93;;;;;;;20.48;54.86;101346.28;20981608;28;20451;-65
2023/06/13 03:19:23;;;;;;;3.55;3.05;;;;;;;20.46;54.74;101350.97;20930262;28;20326;-65
2023/06/13 03:29:26;;;;;;;3.22;2.78;;;;;;;20.46;54.54;101350.97;20951855;28;20053;-65
2023/06/13 03:39:27;;;;;;;3.10;2.80;;;;;;;20.45;54.65;101347.41;20975642;28;20048;-65
2023/06/13 03:49:29;;;;;;;3.33;2.95;;;;;;;20.43;54.44;101354.78;20955343;28;20094;-65
2023/06/13 03:59:33;;;;;;;3.50;2.90;;;;;;;20.41;54.24;101341.44;20924716;28;20434;-65
2023/06/13 04:09:36;;;;;;;2.97;2.53;;;;;;;20.41;54.62;101360.38;20969239;28;20057;-65
2023/06/13 04:19:38;;;;;;;3.10;2.80;;;;;;;20.40;54.67;101369.47;20982480;28;20082;-65
2023/06/13 04:29:43;;;;;;;3.30;2.97;;;;;;;20.40;54.69;101374.00;20956166;28;20048;-64
2023/06/13 04:39:45;;;;;;;4.53;3.70;;;;;;;20.23;54.91;101370.16;20951472;28;20107;-64
2023/06/13 04:49:46;;;;;;;6.70;4.40;;;;;;;20.01;57.04;101366.72;20956172;28;20036;-64
2023/06/13 04:59:48;;;;;;;4.50;3.97;;;;;;;19.86;58.15;101361.66;20922578;28;20065;-64
2023/06/13 05:09:50;;;;;;;3.97;3.40;;;;;;;19.79;59.61;101365.91;20931846;28;20041;-65
2023/06/13 05:19:53;;;;;;;5.43;4.07;;;;;;;19.74;59.07;101364.63;20956706;28;20082;-64
2023/06/13 05:29:55;;;;;;;4.70;3.42;;;;;;;19.69;59.68;101368.59;20917285;28;20050;-67
2023/06/13 05:39:57;;;;;;;5.80;4.13;;;;;;;19.70;59.26;101366.72;20947308;28;20053;-64
2023/06/13 05:49:59;;;;;;;8.02;3.50;;;;;;;19.67;59.00;101365.19;20949147;28;20052;-64
2023/06/13 06:00:00;;;;;;;3.83;3.13;;;;;;;19.62;58.15;101366.56;20958218;28;20055;-64
2023/06/13 06:10:13;;;;;;;4.68;3.63;;;;;;;19.69;57.86;101381.22;20950820;28;20685;-64
2023/06/13 06:20:15;;;;;;;4.57;3.17;;;;;;;19.73;57.40;101385.38;20961701;28;20132;-64
2023/06/13 06:30:17;;;;;;;4.07;3.20;;;;;;;19.78;56.60;101385.81;20920763;28;20053;-64
2023/06/13 06:40:19;;;;;;;5.88;3.30;;;;;;;19.81;56.17;101398.19;20937798;28;20044;-65
2023/06/13 06:50:21;;;;;;;4.93;3.03;;;;;;;19.89;56.79;101395.66;20930649;28;20105;-64
2023/06/13 07:00:23;;;;;;;3.53;2.90;;;;;;;19.95;57.24;101399.69;20935042;28;20049;-65
2023/06/13 07:10:26;;;;;;;2.45;2.22;;;;;;;20.05;57.53;101405.97;20919871;28;20048;-64
2023/06/13 07:20:28;;;;;;;3.53;2.67;;;;;;;20.12;57.75;101392.78;20907399;28;20131;-64
2023/06/13 07:30:29;;;;;;;2.47;1.92;;;;;;;20.22;58.01;101401.75;20922574;28;20073;-65
2023/06/13 07:40:31;;;;;;;2.63;2.00;;;;;;;20.27;57.92;101404.88;20932629;28;20048;-64
2023/06/13 07:50:34;;;;;;;2.70;2.08;;;;;;;20.33;57.71;101398.06;20959676;28;20101;-65
2023/06/13 08:00:35;;;;;;;2.92;1.92;;;;;;;20.41;57.98;101405.47;20953312;28;20045;-65
2023/06/13 08:10:37;;;;;;;3.17;2.38;;;;;;;20.48;58.17;101400.34;20965086;28;20080;-63
2023/06/13 08:20:38;;;;;;;2.42;1.90;;;;;;;20.58;58.99;101379.56;20962097;28;20071;-64
2023/06/13 08:30:42;;;;;;;1.95;1.77;;;;;;;20.67;58.75;101381.41;20971618;28;20079;-63
2023/06/13 08:40:44;;;;;;;2.40;2.20;;;;;;;20.75;58.74;101382.53;20959656;28;20095;-63
2023/06/13 08:50:45;;;;;;;2.92;2.22;;;;;;;20.82;58.88;101371.03;20929389;28;20547;-63
2023/06/13 09:00:47;;;;;;;2.15;1.60;;;;;;;20.89;59.48;101367.75;20949394;28;20128;-63
2023/06/13 09:10:49;;;;;;;1.95;1.75;;;;;;;20.97;59.25;101357.06;20936926;28;20081;-63
2023/06/13 09:20:51;;;;;;;2.75;1.92;;;;;;;21.01;59.37;101366.63;20892660;28;20140;-63
2023/06/13 09:30:53;;;;;;;2.00;1.60;;;;;;;21.05;59.07;101353.63;20955566;28;20437;-64
2023/06/13 09:40:55;;;;;;;1.70;1.58;;;;;;;21.10;59.06;101360.31;20986544;28;20522;-64
2023/06/13 09:50:57;;;;;;;1.98;1.75;;;;;;;21.12;59.07;101343.91;20955683;28;20055;-64
2023/06/13 10:00:59;;;;;;;1.70;1.58;;;;;;;21.16;58.72;101337.19;20944030;28;20105;-64
2023/06/13 10:11:11;;;;;;;1.52;1.40;;;;;;;21.16;58.33;101318.25;20948540;28;20512;-64
2023/06/13 10:21:13;;;;;;;1.58;1.42;;;;;;;21.14;58.01;101306.72;20943127;28;20550;-64
2023/06/13 10:31:36;;;;;;;1.80;1.60;;;;;;;21.21;57.57;101310.56;20950808;28;20040;-63
2023/06/13 10:41:59;;;;;;;1.85;1.70;;;;;;;21.22;57.49;101301.44;20953302;28;20055;-64
2023/06/13 10:52:02;;;;;;;3.88;1.70;;;;;;;21.22;57.22;101301.44;20974192;28;20508;-64
2023/06/13 11:02:04;;;;;;;2.25;1.60;;;;;;;21.21;56.97;101296.16;20950448;28;20583;-64
2023/06/13 11:12:07;;;;;;;1.70;1.58;;;;;;;21.21;56.96;101283.47;20943661;28;20053;-64
2023/06/13 11:22:13;;;;;;;2.13;1.75;;;;;;;21.22;56.67;101268.06;20990083;28;20127;-63
2023/06/13 11:32:16;;;;;;;2.00;1.80;;;;;;;21.21;56.85;101267.25;20959438;28;20464;-64
2023/06/13 11:42:17;;;;;;;2.08;1.88;;;;;;;21.20;56.68;101257.38;20950981;28;20065;-63
2023/06/13 11:52:19;;;;;;;1.70;1.60;;;;;;;21.20;56.14;101238.44;20963071;28;20102;-63
2023/06/13 12:02:20;;;;;;;2.38;1.73;;;;;;;21.21;55.89;101237.44;20944299;28;20076;-63
2023/06/13 12:12:22;;;;;;;2.28;2.00;;;;;;;21.23;55.89;101229.16;20920950;28;20167;-63
2023/06/13 12:22:27;;;;;;;3.08;2.03;;;;;;;21.23;55.65;101232.75;20976511;28;20131;-63
2023/06/13 12:32:29;;;;;;;;;;;;;;;21.24;55.58;101226.31;20971966;28;20512;-63
2023/06/13 12:42:31;;;;;;;2.55;1.90;;;;;;;21.23;55.41;101219.19;20938427;28;19921;-64
2023/06/13 12:52:32;;;;;;;2.00;1.70;;;;;;;21.25;55.41;101216.31;20963577;28;20839;-64
2023/06/13 13:02:34;;;;;;;2.35;2.10;;;;;;;21.25;55.21;101209.06;20956656;28;20040;-64
2023/06/13 13:12:36;;;;;;;2.17;1.98;;;;;;;21.25;55.35;101198.25;20940304;28;20044;-64
2023/06/13 13:22:38;;;;;;;1.75;1.65;;;;;;;21.28;55.71;101202.47;20928061;28;20078;-64
2023/06/13 13:32:39;;;;;;;2.00;1.80;;;;;;;21.27;55.87;101206.19;20958418;28;20142;-64
2023/06/13 13:42:41;;;;;;;2.38;2.13;;;;;;;21.24;56.12;101201.94;20924898;28;20519;-64
2023/06/13 13:52:43;;;;;;;2.95;2.28;;;;;;;21.26;56.42;101188.25;20936233;28;20040;-64
2023/06/13 14:02:44;;;;;;;1.98;1.73;;;;;;;21.27;56.66;101174.56;20923493;28;20044;-64
2023/06/13 14:12:48;;;;;;;1.90;1.70;;;;;;;21.31;56.19;101172.38;20924584;28;20197;-64
2023/06/13 14:22:50;;;;;;;3.33;1.90;;;;;;;21.34;56.84;101184.78;20910072;28;20091;-68
2023/06/13 14:32:52;;;;;;;3.45;2.17;;;;;;;21.37;57.07;101170.94;20914349;28;20560;-64
2023/06/13 14:42:54;;;;;;;3.03;2.22;;;;;;;21.38;57.10;101172.66;20934416;28;20068;-65
2023/06/13 14:52:56;;;;;;;3.20;1.80;;;;;;;21.37;57.21;101169.06;20975734;28;20057;-65
2023/06/13 15:02:59;;;;;;;4.03;1.83;;;;;;;21.38;57.45;101169.94;20961288;28;20037;-66
2023/06/13 15:13:01;;;;;;;3.70;2.10;;;;;;;21.36;56.85;101166.53;20953006;28;21152;-69
2023/06/13 15:23:02;;;;;;;3.45;2.13;;;;;;;21.35;57.58;101162.13;20921749;28;20631;-64
2023/06/13 15:33:04;;;;;;;2.85;2.33;;;;;;;21.39;58.00;101167.06;20916753;28;20425;-62
2023/06/13 15:43:05;;;;;;;4.32;2.55;;;;;;;21.43;58.84;101176.59;20884183;28;20436;-64
2023/06/13 15:53:08;;;;;;;5.85;2.55;;;;;;;21.49;58.63;101160.75;20902208;28;20049;-64
2023/06/13 16:03:10;;;;;;;5.05;2.70;;;;;;;21.47;59.39;101158.19;20905307;28;20052;-75
2023/06/13 16:13:11;;;;;;;8.95;2.67;;;;;;;21.43;58.99;101159.50;20931891;28;20052;-71
2023/06/13 16:23:14;;;;;;;4.18;3.03;;;;;;;21.40;59.70;101162.50;20976486;28;20054;-70
2023/06/13 16:33:16;;;;;;;4.57;2.22;;;;;;;21.35;58.02;101156.69;20993511;28;20051;-70
2023/06/13 16:43:18;;;;;;;3.85;2.35;;;;;;;21.33;57.53;101156.00;20993350;28;20106;-70
2023/06/13 16:53:20;;;;;;;4.00;2.53;;;;;;;21.23;56.82;101150.66;20991135;28;20452;-70
2023/06/13 17:03:22;;;;;;;4.60;2.67;;;;;;;21.25;56.35;101154.91;20990980;28;20206;-70
2023/06/13 17:13:24;;;;;;;3.75;2.75;;;;;;;21.23;56.73;101164.19;21007773;28;20062;-70
2023/06/13 17:23:26;;;;;;;2.85;2.30;;;;;;;21.21;56.10;101164.34;21071844;28;20074;-70
2023/06/13 17:33:28;;;;;;;4.38;2.60;;;;;;;21.18;56.00;101170.03;21072533;28;20052;-70
2023/06/13 17:43:49;;;;;;;3.05;2.40;;;;;;;21.16;56.37;101172.03;21072084;28;20072;-69
2023/06/13 17:53:52;;;;;;;2.67;2.20;;;;;;;21.14;55.51;101177.63;21052608;28;20454;-70
2023/06/13 18:03:56;;;;;;;3.08;2.40;;;;;;;21.12;55.08;101192.31;21051605;28;20048;-70
2023/06/13 18:13:58;;;;;;;2.55;2.28;;;;;;;21.11;54.96;101185.19;21027393;28;20108;-70
2023/06/13 18:24:00;;;;;;;2.40;2.10;;;;;;;21.10;54.71;101199.72;21050472;28;20052;-70
2023/06/13 18:34:03;;;;;;;3.15;2.42;;;;;;;21.08;54.42;101193.63;21026635;28;20056;-70
2023/06/13 18:44:07;;;;;;;2.97;2.08;;;;;;;21.05;54.32;101193.91;20984250;28;20648;-69
2023/06/13 18:54:08;;;;;;;4.17;2.30;;;;;;;21.04;53.88;101200.34;20983714;28;20292;-70
2023/06/13 19:04:11;;;;;;;2.67;1.83;;;;;;;21.03;54.45;101202.19;20982707;28;20045;-70
2023/06/13 19:14:12;;;;;;;3.67;2.35;;;;;;;21.02;54.72;101203.22;21033320;28;20051;-69
2023/06/13 19:24:14;;;;;;;3.63;2.47;;;;;;;21.01;55.32;101217.75;21016598;28;20416;-70
2023/06/13 19:34:16;;;;;;;3.30;2.30;;;;;;;20.99;55.97;101225.13;20938982;28;20435;-70
2023/06/13 19:44:17;;;;;;;2.75;2.47;;;;;;;20.97;56.48;101225.28;20976023;28;20767;-69
2023/06/13 19:54:19;;;;;;;3.05;2.58;;;;;;;20.95;56.82;101227.31;20976543;28;20040;-70
2023/06/13 20:04:23;;;;;;;2.45;1.83;;;;;;;20.94;57.25;101249.09;20959621;28;20390;-70
2023/06/13 20:14:25;;;;;;;3.13;2.40;;;;;;;20.95;58.48;101248.09;20973824;28;20056;-71
2023/06/13 20:24:27;;;;;;;3.53;2.53;;;;;;;20.94;59.94;101260.78;20977580;28;20621;-70
2023/06/13 20:34:29;;;;;;;3.88;2.90;;;;;;;20.93;61.19;101271.75;20978728;28;20086;-70
2023/06/13 20:44:31;;;;;;;4.38;2.83;;;;;;;20.90;61.27;101286.44;20964534;28;20594;-70
2023/06/13 20:54:33;;;;;;;3.78;3.10;;;;;;;20.89;61.84;101294.69;20964438;28;20041;-71
2023/06/13 21:04:34;;;;;;;3.78;2.60;;;;;;;20.89;60.94;101305.50;20969714;28;20084;-71
2023/06/13 21:14:36;;;;;;;3.28;2.25;;;;;;;20.86;60.50;101312.09;20962851;28;20044;-71
2023/06/13 21:24:38;;;;;;;3.78;2.30;;;;;;;20.85;60.29;101315.78;20980115;28;20075;-70
2023/06/13 21:34:39;;;;;;;2.95;2.40;;;;;;;20.83;59.89;101329.44;20955661;28;20578;-71
2023/06/13 21:44:41;;;;;;;3.53;2.10;;;;;;;20.80;59.04;101334.31;20967059;28;20064;-70
2023/06/13 21:54:43;;;;;;;3.08;1.98;;;;;;;20.72;58.46;101338.53;20935744;28;20045;-71
2023/06/13 22:04:45;;;;;;;3.85;2.20;;;;;;;20.75;57.71;101359.06;20953379;28;20118;-71
2023/06/13 22:14:46;;;;;;;3.63;2.28;;;;;;;20.73;57.33;101370.00;20958142;28;20131;-70
2023/06/13 22:24:48;;;;;;;2.47;2.03;;;;;;;20.70;56.75;101377.59;20954816;28;20120;-70
2023/06/13 22:34:51;;;;;;;2.42;1.88;;;;;;;20.70;56.27;101391.94;20940054;28;20052;-70
2023/06/13 22:44:52;;;;;;;2.38;1.83;;;;;;;20.68;56.05;101396.66;20933894;28;20601;-70
2023/06/13 22:54:54;;;;;;;2.83;2.13;;;;;;;20.67;55.47;101400.34;20947010;28;20307;-71
2023/06/13 23:04:56;;;;;;;2.78;1.80;;;;;;;20.65;55.48;101407.75;20930350;28;20059;-71
2023/06/13 23:14:57;;;;;;;2.58;1.80;;;;;;;20.64;55.18;101400.63;20957240;28;20051;-71
2023/06/13 23:24:59;;;;;;;2.42;1.80;;;;;;;20.62;55.00;101408.03;20978215;28;20069;-71
2023/06/13 23:35:01;;;;;;;2.38;1.83;;;;;;;20.61;54.75;101408.19;20964011;28;20191;-71
2023/06/13 23:45:03;;;;;;;2.53;1.90;;;;;;;20.58;54.53;101417.44;20924689;28;20523;-71
2023/06/13 23:55:06;;;;;;;2.22;1.35;;;;;;;20.56;54.46;101400.50;20939977;28;20049;-70
